sensor_id;sensor_type;location;lat;lon;timestamp;temperature;humidity
13606;DHT22;6874;52.084;5.090;2023-12-28T00:00:17;8.40;99.90
13606;DHT22;6874;52.084;5.090;2023-12-28T00:02:43;8.40;99.90
13606;DHT22;6874;52.084;5.090;2023-12-28T00:05:09;8.40;99.90
13606;DHT22;6874;52.084;5.090;2023-12-28T00:07:34;8.40;99.90
13606;DHT22;6874;52.084;5.090;2023-12-28T00:10:01;8.40;99.90
13606;DHT22;6874;52.084;5.090;2023-12-28T00:12:27;8.40;99.90
13606;DHT22;6874;52.084;5.090;2023-12-28T00:14:53;8.40;99.90
13606;DHT22;6874;52.084;5.090;2023-12-28T00:17:18;8.50;99.90
13606;DHT22;6874;52.084;5.090;2023-12-28T00:19:44;8.50;99.90
13606;DHT22;6874;52.084;5.090;2023-12-28T00:22:09;8.50;99.90
13606;DHT22;6874;52.084;5.090;2023-12-28T00:24:35;8.50;99.90
13606;DHT22;6874;52.084;5.090;2023-12-28T00:27:00;8.50;99.90
13606;DHT22;6874;52.084;5.090;2023-12-28T00:29:26;8.50;99.90
13606;DHT22;6874;52.084;5.090;2023-12-28T00:31:54;8.50;99.90
13606;DHT22;6874;52.084;5.090;2023-12-28T00:34:19;8.50;99.90
13606;DHT22;6874;52.084;5.090;2023-12-28T00:36:45;8.60;99.90
13606;DHT22;6874;52.084;5.090;2023-12-28T00:39:10;8.60;99.90
13606;DHT22;6874;52.084;5.090;2023-12-28T00:41:36;8.60;99.90
13606;DHT22;6874;52.084;5.090;2023-12-28T00:44:01;8.60;99.90
13606;DHT22;6874;52.084;5.090;2023-12-28T00:46:27;8.60;99.90
13606;DHT22;6874;52.084;5.090;2023-12-28T00:48:53;8.60;99.90
13606;DHT22;6874;52.084;5.090;2023-12-28T00:51:20;8.60;99.90
13606;DHT22;6874;52.084;5.090;2023-12-28T00:53:45;8.60;99.90
13606;DHT22;6874;52.084;5.090;2023-12-28T00:56:11;8.60;99.90
13606;DHT22;6874;52.084;5.090;2023-12-28T00:58:40;8.60;99.90
13606;DHT22;6874;52.084;5.090;2023-12-28T01:01:06;8.60;99.90
13606;DHT22;6874;52.084;5.090;2023-12-28T01:03:31;8.60;99.90
13606;DHT22;6874;52.084;5.090;2023-12-28T01:05:57;8.60;99.90
13606;DHT22;6874;52.084;5.090;2023-12-28T01:08:22;8.60;99.90
13606;DHT22;6874;52.084;5.090;2023-12-28T01:10:48;8.60;99.90
13606;DHT22;6874;52.084;5.090;2023-12-28T01:13:13;8.50;99.90
13606;DHT22;6874;52.084;5.090;2023-12-28T01:15:39;8.60;99.90
13606;DHT22;6874;52.084;5.090;2023-12-28T01:18:05;8.60;99.90
13606;DHT22;6874;52.084;5.090;2023-12-28T01:20:30;8.60;99.90
13606;DHT22;6874;52.084;5.090;2023-12-28T01:22:56;8.60;99.90
13606;DHT22;6874;52.084;5.090;2023-12-28T01:25:21;8.60;99.90
13606;DHT22;6874;52.084;5.090;2023-12-28T01:27:47;8.60;99.90
13606;DHT22;6874;52.084;5.090;2023-12-28T01:30:12;8.60;99.90
13606;DHT22;6874;52.084;5.090;2023-12-28T01:32:38;8.60;99.90
13606;DHT22;6874;52.084;5.090;2023-12-28T01:35:04;8.60;99.90
13606;DHT22;6874;52.084;5.090;2023-12-28T01:37:29;8.60;99.90
13606;DHT22;6874;52.084;5.090;2023-12-28T01:39:59;8.60;99.90
13606;DHT22;6874;52.084;5.090;2023-12-28T01:42:25;8.60;99.90
13606;DHT22;6874;52.084;5.090;2023-12-28T01:44:50;8.60;99.90
13606;DHT22;6874;52.084;5.090;2023-12-28T01:47:16;8.60;99.90
13606;DHT22;6874;52.084;5.090;2023-12-28T01:49:43;8.60;99.90
13606;DHT22;6874;52.084;5.090;2023-12-28T01:52:09;8.60;99.90
13606;DHT22;6874;52.084;5.090;2023-12-28T01:54:35;8.60;99.90
13606;DHT22;6874;52.084;5.090;2023-12-28T01:57:03;8.60;99.90
13606;DHT22;6874;52.084;5.090;2023-12-28T01:59:29;8.60;99.90
13606;DHT22;6874;52.084;5.090;2023-12-28T02:01:55;8.60;99.90
13606;DHT22;6874;52.084;5.090;2023-12-28T02:04:20;8.60;99.90
13606;DHT22;6874;52.084;5.090;2023-12-28T02:06:54;8.50;99.90
13606;DHT22;6874;52.084;5.090;2023-12-28T02:09:21;8.50;99.90
13606;DHT22;6874;52.084;5.090;2023-12-28T02:11:47;8.50;99.90
13606;DHT22;6874;52.084;5.090;2023-12-28T02:14:12;8.60;99.90
13606;DHT22;6874;52.084;5.090;2023-12-28T02:16:44;8.60;99.90
13606;DHT22;6874;52.084;5.090;2023-12-28T02:19:45;8.50;99.90
13606;DHT22;6874;52.084;5.090;2023-12-28T02:22:14;8.60;99.90
13606;DHT22;6874;52.084;5.090;2023-12-28T02:27:23;8.60;99.90
13606;DHT22;6874;52.084;5.090;2023-12-28T02:29:49;8.60;99.90
13606;DHT22;6874;52.084;5.090;2023-12-28T02:32:16;8.60;99.90
13606;DHT22;6874;52.084;5.090;2023-12-28T02:34:44;8.60;99.90
13606;DHT22;6874;52.084;5.090;2023-12-28T02:37:13;8.60;99.90
13606;DHT22;6874;52.084;5.090;2023-12-28T02:39:43;8.60;99.90
13606;DHT22;6874;52.084;5.090;2023-12-28T02:42:10;8.60;99.90
13606;DHT22;6874;52.084;5.090;2023-12-28T02:44:36;8.60;99.90
13606;DHT22;6874;52.084;5.090;2023-12-28T02:47:02;8.60;99.90
13606;DHT22;6874;52.084;5.090;2023-12-28T02:49:27;8.60;99.90
13606;DHT22;6874;52.084;5.090;2023-12-28T02:51:53;8.60;99.90
13606;DHT22;6874;52.084;5.090;2023-12-28T02:54:19;8.60;99.90
13606;DHT22;6874;52.084;5.090;2023-12-28T02:56:45;8.60;99.90
13606;DHT22;6874;52.084;5.090;2023-12-28T02:59:10;8.60;99.90
13606;DHT22;6874;52.084;5.090;2023-12-28T03:01:36;8.60;99.90
13606;DHT22;6874;52.084;5.090;2023-12-28T03:04:01;8.60;99.90
13606;DHT22;6874;52.084;5.090;2023-12-28T03:06:27;8.60;99.90
13606;DHT22;6874;52.084;5.090;2023-12-28T03:08:53;8.70;99.90
13606;DHT22;6874;52.084;5.090;2023-12-28T03:11:18;8.60;99.90
13606;DHT22;6874;52.084;5.090;2023-12-28T03:13:45;8.60;99.90
13606;DHT22;6874;52.084;5.090;2023-12-28T03:16:13;8.60;99.90
13606;DHT22;6874;52.084;5.090;2023-12-28T03:18:39;8.60;99.90
13606;DHT22;6874;52.084;5.090;2023-12-28T03:21:04;8.60;99.90
13606;DHT22;6874;52.084;5.090;2023-12-28T03:23:30;8.70;99.90
13606;DHT22;6874;52.084;5.090;2023-12-28T03:25:56;8.70;99.90
13606;DHT22;6874;52.084;5.090;2023-12-28T03:28:21;8.70;99.90
13606;DHT22;6874;52.084;5.090;2023-12-28T03:30:47;8.70;99.90
13606;DHT22;6874;52.084;5.090;2023-12-28T03:33:12;8.70;99.90
13606;DHT22;6874;52.084;5.090;2023-12-28T03:35:38;8.70;99.90
13606;DHT22;6874;52.084;5.090;2023-12-28T03:38:03;8.70;99.90
13606;DHT22;6874;52.084;5.090;2023-12-28T03:40:29;8.70;99.90
13606;DHT22;6874;52.084;5.090;2023-12-28T03:42:55;8.70;99.90
13606;DHT22;6874;52.084;5.090;2023-12-28T03:45:20;8.70;99.90
13606;DHT22;6874;52.084;5.090;2023-12-28T03:47:46;8.70;99.90
13606;DHT22;6874;52.084;5.090;2023-12-28T03:50:11;8.70;99.90
13606;DHT22;6874;52.084;5.090;2023-12-28T03:52:37;8.80;99.90
13606;DHT22;6874;52.084;5.090;2023-12-28T03:55:03;8.70;99.90
13606;DHT22;6874;52.084;5.090;2023-12-28T03:57:29;8.70;99.90
13606;DHT22;6874;52.084;5.090;2023-12-28T03:59:54;8.70;99.90
13606;DHT22;6874;52.084;5.090;2023-12-28T04:02:20;8.70;99.90
13606;DHT22;6874;52.084;5.090;2023-12-28T04:04:45;8.70;99.90
13606;DHT22;6874;52.084;5.090;2023-12-28T04:07:11;8.60;99.90
13606;DHT22;6874;52.084;5.090;2023-12-28T04:09:36;8.70;99.90
13606;DHT22;6874;52.084;5.090;2023-12-28T04:12:02;8.70;99.90
13606;DHT22;6874;52.084;5.090;2023-12-28T04:14:28;8.60;99.90
13606;DHT22;6874;52.084;5.090;2023-12-28T04:16:53;8.60;99.90
13606;DHT22;6874;52.084;5.090;2023-12-28T04:19:19;8.60;99.90
13606;DHT22;6874;52.084;5.090;2023-12-28T04:21:44;8.60;99.90
13606;DHT22;6874;52.084;5.090;2023-12-28T04:24:10;8.60;99.90
13606;DHT22;6874;52.084;5.090;2023-12-28T04:26:36;8.60;99.90
13606;DHT22;6874;52.084;5.090;2023-12-28T04:29:02;8.60;99.90
13606;DHT22;6874;52.084;5.090;2023-12-28T04:31:27;8.60;99.90
13606;DHT22;6874;52.084;5.090;2023-12-28T04:33:53;8.70;99.90
13606;DHT22;6874;52.084;5.090;2023-12-28T04:36:19;8.70;99.90
13606;DHT22;6874;52.084;5.090;2023-12-28T04:38:45;8.70;99.90
13606;DHT22;6874;52.084;5.090;2023-12-28T04:41:10;8.70;99.90
13606;DHT22;6874;52.084;5.090;2023-12-28T04:43:37;8.80;99.90
13606;DHT22;6874;52.084;5.090;2023-12-28T04:46:06;8.70;99.90
13606;DHT22;6874;52.084;5.090;2023-12-28T04:48:32;8.70;99.90
13606;DHT22;6874;52.084;5.090;2023-12-28T04:50:57;8.70;99.90
13606;DHT22;6874;52.084;5.090;2023-12-28T04:53:23;8.70;99.90
13606;DHT22;6874;52.084;5.090;2023-12-28T04:55:49;8.70;99.90
13606;DHT22;6874;52.084;5.090;2023-12-28T04:58:14;8.70;99.90
13606;DHT22;6874;52.084;5.090;2023-12-28T05:00:40;8.70;99.90
13606;DHT22;6874;52.084;5.090;2023-12-28T05:03:06;8.70;99.90
13606;DHT22;6874;52.084;5.090;2023-12-28T05:05:31;8.80;99.90
13606;DHT22;6874;52.084;5.090;2023-12-28T05:07:57;8.70;99.90
13606;DHT22;6874;52.084;5.090;2023-12-28T05:10:23;8.80;99.90
13606;DHT22;6874;52.084;5.090;2023-12-28T05:12:48;8.80;99.90
13606;DHT22;6874;52.084;5.090;2023-12-28T05:15:14;8.80;99.90
13606;DHT22;6874;52.084;5.090;2023-12-28T05:17:40;8.80;99.90
13606;DHT22;6874;52.084;5.090;2023-12-28T05:20:07;8.80;99.90
13606;DHT22;6874;52.084;5.090;2023-12-28T05:22:32;8.80;99.90
13606;DHT22;6874;52.084;5.090;2023-12-28T05:24:58;8.80;99.90
13606;DHT22;6874;52.084;5.090;2023-12-28T05:27:23;8.80;99.90
13606;DHT22;6874;52.084;5.090;2023-12-28T05:29:49;8.90;99.90
13606;DHT22;6874;52.084;5.090;2023-12-28T05:32:15;8.90;99.90
13606;DHT22;6874;52.084;5.090;2023-12-28T05:34:40;8.90;99.90
13606;DHT22;6874;52.084;5.090;2023-12-28T05:37:06;8.90;99.90
13606;DHT22;6874;52.084;5.090;2023-12-28T05:39:31;8.90;99.90
13606;DHT22;6874;52.084;5.090;2023-12-28T05:41:57;8.90;99.90
13606;DHT22;6874;52.084;5.090;2023-12-28T05:44:23;8.80;99.90
13606;DHT22;6874;52.084;5.090;2023-12-28T05:46:48;8.90;99.90
13606;DHT22;6874;52.084;5.090;2023-12-28T05:49:14;8.90;99.90
13606;DHT22;6874;52.084;5.090;2023-12-28T05:51:40;9.00;99.90
13606;DHT22;6874;52.084;5.090;2023-12-28T05:54:07;8.90;99.90
13606;DHT22;6874;52.084;5.090;2023-12-28T05:56:33;9.00;99.90
13606;DHT22;6874;52.084;5.090;2023-12-28T05:58:58;8.90;99.90
13606;DHT22;6874;52.084;5.090;2023-12-28T06:01:24;9.00;99.90
13606;DHT22;6874;52.084;5.090;2023-12-28T06:03:50;9.00;99.90
13606;DHT22;6874;52.084;5.090;2023-12-28T06:06:18;9.00;99.90
13606;DHT22;6874;52.084;5.090;2023-12-28T06:08:43;9.00;99.90
13606;DHT22;6874;52.084;5.090;2023-12-28T06:11:09;9.00;99.90
13606;DHT22;6874;52.084;5.090;2023-12-28T06:13:34;9.00;99.90
13606;DHT22;6874;52.084;5.090;2023-12-28T06:16:00;9.00;99.90
13606;DHT22;6874;52.084;5.090;2023-12-28T06:18:25;9.00;99.90
13606;DHT22;6874;52.084;5.090;2023-12-28T06:20:51;9.00;99.90
13606;DHT22;6874;52.084;5.090;2023-12-28T06:23:16;9.00;99.90
13606;DHT22;6874;52.084;5.090;2023-12-28T06:25:42;9.00;99.90
13606;DHT22;6874;52.084;5.090;2023-12-28T06:28:08;9.00;99.90
13606;DHT22;6874;52.084;5.090;2023-12-28T06:30:33;9.10;99.90
13606;DHT22;6874;52.084;5.090;2023-12-28T06:32:59;9.10;99.90
13606;DHT22;6874;52.084;5.090;2023-12-28T06:35:24;9.00;99.90
13606;DHT22;6874;52.084;5.090;2023-12-28T06:37:50;9.10;99.90
13606;DHT22;6874;52.084;5.090;2023-12-28T06:40:15;9.10;99.90
13606;DHT22;6874;52.084;5.090;2023-12-28T06:42:41;9.10;99.90
13606;DHT22;6874;52.084;5.090;2023-12-28T06:45:09;9.10;99.90
13606;DHT22;6874;52.084;5.090;2023-12-28T06:47:34;9.10;99.90
13606;DHT22;6874;52.084;5.090;2023-12-28T06:50:00;9.10;99.90
13606;DHT22;6874;52.084;5.090;2023-12-28T06:52:26;9.10;99.90
13606;DHT22;6874;52.084;5.090;2023-12-28T06:54:51;9.10;99.90
13606;DHT22;6874;52.084;5.090;2023-12-28T06:57:18;9.10;99.90
13606;DHT22;6874;52.084;5.090;2023-12-28T06:59:44;9.10;99.90
13606;DHT22;6874;52.084;5.090;2023-12-28T07:02:09;9.10;99.90
13606;DHT22;6874;52.084;5.090;2023-12-28T07:04:35;9.10;99.90
13606;DHT22;6874;52.084;5.090;2023-12-28T07:07:00;9.20;99.90
13606;DHT22;6874;52.084;5.090;2023-12-28T07:09:26;9.20;99.90
13606;DHT22;6874;52.084;5.090;2023-12-28T07:11:52;9.10;99.90
13606;DHT22;6874;52.084;5.090;2023-12-28T07:14:17;9.10;99.90
13606;DHT22;6874;52.084;5.090;2023-12-28T07:16:43;9.10;99.90
13606;DHT22;6874;52.084;5.090;2023-12-28T07:19:08;9.10;99.90
13606;DHT22;6874;52.084;5.090;2023-12-28T07:21:34;9.10;99.90
13606;DHT22;6874;52.084;5.090;2023-12-28T07:23:59;9.10;99.90
13606;DHT22;6874;52.084;5.090;2023-12-28T07:26:25;9.10;99.90
13606;DHT22;6874;52.084;5.090;2023-12-28T07:28:51;9.10;99.90
13606;DHT22;6874;52.084;5.090;2023-12-28T07:31:26;9.20;99.90
13606;DHT22;6874;52.084;5.090;2023-12-28T07:33:52;9.10;99.90
13606;DHT22;6874;52.084;5.090;2023-12-28T07:36:19;9.10;99.90
13606;DHT22;6874;52.084;5.090;2023-12-28T07:38:44;9.10;99.90
13606;DHT22;6874;52.084;5.090;2023-12-28T07:41:10;9.10;99.90
13606;DHT22;6874;52.084;5.090;2023-12-28T07:43:35;9.10;99.90
13606;DHT22;6874;52.084;5.090;2023-12-28T07:46:01;9.10;99.90
13606;DHT22;6874;52.084;5.090;2023-12-28T07:48:27;9.10;99.90
13606;DHT22;6874;52.084;5.090;2023-12-28T07:50:56;9.10;99.90
13606;DHT22;6874;52.084;5.090;2023-12-28T07:53:21;9.10;99.90
13606;DHT22;6874;52.084;5.090;2023-12-28T07:55:47;9.10;99.90
13606;DHT22;6874;52.084;5.090;2023-12-28T07:58:13;9.10;99.90
13606;DHT22;6874;52.084;5.090;2023-12-28T08:00:38;9.10;99.90
13606;DHT22;6874;52.084;5.090;2023-12-28T08:03:04;9.10;99.90
13606;DHT22;6874;52.084;5.090;2023-12-28T08:05:29;9.10;99.90
13606;DHT22;6874;52.084;5.090;2023-12-28T08:07:55;9.10;99.90
13606;DHT22;6874;52.084;5.090;2023-12-28T08:10:21;9.10;99.90
13606;DHT22;6874;52.084;5.090;2023-12-28T08:12:46;9.10;99.90
13606;DHT22;6874;52.084;5.090;2023-12-28T08:15:12;9.10;99.90
13606;DHT22;6874;52.084;5.090;2023-12-28T08:17:37;9.10;99.90
13606;DHT22;6874;52.084;5.090;2023-12-28T08:20:04;9.10;99.90
13606;DHT22;6874;52.084;5.090;2023-12-28T08:22:30;9.20;99.90
13606;DHT22;6874;52.084;5.090;2023-12-28T08:24:56;9.20;99.90
13606;DHT22;6874;52.084;5.090;2023-12-28T08:27:23;9.20;99.90
13606;DHT22;6874;52.084;5.090;2023-12-28T08:29:48;9.10;99.90
13606;DHT22;6874;52.084;5.090;2023-12-28T08:32:14;9.20;99.90
13606;DHT22;6874;52.084;5.090;2023-12-28T08:34:39;9.20;99.90
13606;DHT22;6874;52.084;5.090;2023-12-28T08:37:05;9.20;99.90
13606;DHT22;6874;52.084;5.090;2023-12-28T08:39:31;9.20;99.90
13606;DHT22;6874;52.084;5.090;2023-12-28T08:41:56;9.20;99.90
13606;DHT22;6874;52.084;5.090;2023-12-28T08:44:22;9.20;99.90
13606;DHT22;6874;52.084;5.090;2023-12-28T08:46:47;9.20;99.90
13606;DHT22;6874;52.084;5.090;2023-12-28T08:49:13;9.20;99.90
13606;DHT22;6874;52.084;5.090;2023-12-28T08:51:41;9.30;99.90
13606;DHT22;6874;52.084;5.090;2023-12-28T08:54:07;9.20;99.90
13606;DHT22;6874;52.084;5.090;2023-12-28T08:56:33;9.20;99.90
13606;DHT22;6874;52.084;5.090;2023-12-28T08:58:59;9.30;99.90
13606;DHT22;6874;52.084;5.090;2023-12-28T09:01:24;9.30;99.90
13606;DHT22;6874;52.084;5.090;2023-12-28T09:03:55;9.30;99.90
13606;DHT22;6874;52.084;5.090;2023-12-28T09:06:21;9.30;99.90
13606;DHT22;6874;52.084;5.090;2023-12-28T09:08:50;9.30;99.90
13606;DHT22;6874;52.084;5.090;2023-12-28T09:11:17;9.30;99.90
13606;DHT22;6874;52.084;5.090;2023-12-28T09:13:42;9.30;99.90
13606;DHT22;6874;52.084;5.090;2023-12-28T09:16:10;9.30;99.90
13606;DHT22;6874;52.084;5.090;2023-12-28T09:18:37;9.30;99.90
13606;DHT22;6874;52.084;5.090;2023-12-28T09:21:03;9.30;99.90
13606;DHT22;6874;52.084;5.090;2023-12-28T09:23:29;9.30;99.90
13606;DHT22;6874;52.084;5.090;2023-12-28T09:25:54;9.30;99.90
13606;DHT22;6874;52.084;5.090;2023-12-28T09:28:20;9.30;99.90
13606;DHT22;6874;52.084;5.090;2023-12-28T09:30:45;9.30;99.90
13606;DHT22;6874;52.084;5.090;2023-12-28T09:33:11;9.30;99.90
13606;DHT22;6874;52.084;5.090;2023-12-28T09:35:37;9.40;99.90
13606;DHT22;6874;52.084;5.090;2023-12-28T09:38:03;9.40;99.90
13606;DHT22;6874;52.084;5.090;2023-12-28T09:40:28;9.40;99.90
13606;DHT22;6874;52.084;5.090;2023-12-28T09:43:21;9.40;99.90
13606;DHT22;6874;52.084;5.090;2023-12-28T09:45:47;9.40;99.90
13606;DHT22;6874;52.084;5.090;2023-12-28T09:48:17;9.40;99.90
13606;DHT22;6874;52.084;5.090;2023-12-28T09:50:54;9.50;99.90
13606;DHT22;6874;52.084;5.090;2023-12-28T09:53:23;9.50;99.90
13606;DHT22;6874;52.084;5.090;2023-12-28T09:55:49;9.50;99.90
13606;DHT22;6874;52.084;5.090;2023-12-28T09:58:17;9.50;99.90
13606;DHT22;6874;52.084;5.090;2023-12-28T10:00:45;9.50;99.90
13606;DHT22;6874;52.084;5.090;2023-12-28T10:03:12;9.50;99.90
13606;DHT22;6874;52.084;5.090;2023-12-28T10:05:40;9.50;99.90
13606;DHT22;6874;52.084;5.090;2023-12-28T10:08:06;9.50;99.90
13606;DHT22;6874;52.084;5.090;2023-12-28T10:10:32;9.60;99.90
13606;DHT22;6874;52.084;5.090;2023-12-28T10:12:57;9.50;99.90
13606;DHT22;6874;52.084;5.090;2023-12-28T10:15:23;9.60;99.90
13606;DHT22;6874;52.084;5.090;2023-12-28T10:17:51;9.60;99.90
13606;DHT22;6874;52.084;5.090;2023-12-28T10:20:17;9.60;99.90
13606;DHT22;6874;52.084;5.090;2023-12-28T10:22:44;9.60;99.90
13606;DHT22;6874;52.084;5.090;2023-12-28T10:25:10;9.60;99.90
13606;DHT22;6874;52.084;5.090;2023-12-28T10:27:39;9.60;99.90
13606;DHT22;6874;52.084;5.090;2023-12-28T10:30:07;9.60;99.90
13606;DHT22;6874;52.084;5.090;2023-12-28T10:32:32;9.60;99.90
13606;DHT22;6874;52.084;5.090;2023-12-28T10:34:58;9.60;99.90
13606;DHT22;6874;52.084;5.090;2023-12-28T10:37:26;9.60;99.90
13606;DHT22;6874;52.084;5.090;2023-12-28T10:39:54;9.60;99.90
13606;DHT22;6874;52.084;5.090;2023-12-28T10:42:31;9.60;99.90
13606;DHT22;6874;52.084;5.090;2023-12-28T10:45:04;9.60;99.90
13606;DHT22;6874;52.084;5.090;2023-12-28T10:47:33;9.70;99.90
13606;DHT22;6874;52.084;5.090;2023-12-28T10:50:04;9.70;99.90
13606;DHT22;6874;52.084;5.090;2023-12-28T10:52:32;9.70;99.90
13606;DHT22;6874;52.084;5.090;2023-12-28T10:58:15;9.70;99.90
13606;DHT22;6874;52.084;5.090;2023-12-28T11:00:59;9.70;99.90
13606;DHT22;6874;52.084;5.090;2023-12-28T11:03:34;9.70;99.90
13606;DHT22;6874;52.084;5.090;2023-12-28T11:06:02;9.80;99.90
13606;DHT22;6874;52.084;5.090;2023-12-28T11:08:32;9.80;99.90
13606;DHT22;6874;52.084;5.090;2023-12-28T11:10:59;9.80;99.90
13606;DHT22;6874;52.084;5.090;2023-12-28T11:13:29;9.80;99.90
13606;DHT22;6874;52.084;5.090;2023-12-28T11:15:56;9.80;99.90
13606;DHT22;6874;52.084;5.090;2023-12-28T11:18:23;9.80;99.90
13606;DHT22;6874;52.084;5.090;2023-12-28T11:20:50;9.80;99.90
13606;DHT22;6874;52.084;5.090;2023-12-28T11:23:16;9.80;99.90
13606;DHT22;6874;52.084;5.090;2023-12-28T11:25:42;9.80;99.90
13606;DHT22;6874;52.084;5.090;2023-12-28T11:28:11;9.80;99.90
13606;DHT22;6874;52.084;5.090;2023-12-28T11:30:38;9.90;99.90
13606;DHT22;6874;52.084;5.090;2023-12-28T11:33:07;9.90;99.90
13606;DHT22;6874;52.084;5.090;2023-12-28T11:35:39;9.90;99.90
13606;DHT22;6874;52.084;5.090;2023-12-28T11:38:07;10.00;99.90
13606;DHT22;6874;52.084;5.090;2023-12-28T11:40:42;9.90;99.90
13606;DHT22;6874;52.084;5.090;2023-12-28T11:43:19;9.90;99.90
13606;DHT22;6874;52.084;5.090;2023-12-28T11:45:54;9.90;99.90
13606;DHT22;6874;52.084;5.090;2023-12-28T11:50:52;9.90;99.90
13606;DHT22;6874;52.084;5.090;2023-12-28T11:53:20;10.00;99.90
13606;DHT22;6874;52.084;5.090;2023-12-28T11:55:45;9.90;99.90
13606;DHT22;6874;52.084;5.090;2023-12-28T11:58:11;9.90;99.90
13606;DHT22;6874;52.084;5.090;2023-12-28T12:00:37;10.00;99.90
13606;DHT22;6874;52.084;5.090;2023-12-28T12:03:03;10.00;99.90
13606;DHT22;6874;52.084;5.090;2023-12-28T12:05:28;10.00;99.90
13606;DHT22;6874;52.084;5.090;2023-12-28T12:07:54;10.00;99.90
13606;DHT22;6874;52.084;5.090;2023-12-28T12:10:20;10.00;99.90
13606;DHT22;6874;52.084;5.090;2023-12-28T12:12:47;10.00;99.90
13606;DHT22;6874;52.084;5.090;2023-12-28T12:15:12;10.00;99.90
13606;DHT22;6874;52.084;5.090;2023-12-28T12:17:38;10.00;99.90
13606;DHT22;6874;52.084;5.090;2023-12-28T12:20:05;10.00;99.90
13606;DHT22;6874;52.084;5.090;2023-12-28T12:22:32;10.10;99.90
13606;DHT22;6874;52.084;5.090;2023-12-28T12:25:00;10.10;99.90
13606;DHT22;6874;52.084;5.090;2023-12-28T12:27:29;10.10;99.90
13606;DHT22;6874;52.084;5.090;2023-12-28T12:29:54;10.10;99.90
13606;DHT22;6874;52.084;5.090;2023-12-28T12:32:20;10.10;99.90
13606;DHT22;6874;52.084;5.090;2023-12-28T12:34:47;10.10;99.90
13606;DHT22;6874;52.084;5.090;2023-12-28T12:37:12;10.10;99.90
13606;DHT22;6874;52.084;5.090;2023-12-28T12:39:38;10.10;99.90
13606;DHT22;6874;52.084;5.090;2023-12-28T12:42:04;10.10;99.90
13606;DHT22;6874;52.084;5.090;2023-12-28T12:44:30;10.20;99.90
13606;DHT22;6874;52.084;5.090;2023-12-28T12:46:59;10.20;99.90
13606;DHT22;6874;52.084;5.090;2023-12-28T12:49:25;10.20;99.90
13606;DHT22;6874;52.084;5.090;2023-12-28T12:51:51;10.20;99.90
13606;DHT22;6874;52.084;5.090;2023-12-28T12:54:17;10.20;99.90
13606;DHT22;6874;52.084;5.090;2023-12-28T12:56:46;10.20;99.90
13606;DHT22;6874;52.084;5.090;2023-12-28T12:59:12;10.20;99.90
13606;DHT22;6874;52.084;5.090;2023-12-28T13:01:43;10.20;99.90
13606;DHT22;6874;52.084;5.090;2023-12-28T13:04:09;10.20;99.90
13606;DHT22;6874;52.084;5.090;2023-12-28T13:06:35;10.20;99.90
13606;DHT22;6874;52.084;5.090;2023-12-28T13:09:00;10.20;99.90
13606;DHT22;6874;52.084;5.090;2023-12-28T13:11:26;10.20;99.90
13606;DHT22;6874;52.084;5.090;2023-12-28T13:13:54;10.20;99.90
13606;DHT22;6874;52.084;5.090;2023-12-28T13:16:20;10.20;99.90
13606;DHT22;6874;52.084;5.090;2023-12-28T13:18:45;10.20;99.90
13606;DHT22;6874;52.084;5.090;2023-12-28T13:21:11;10.20;99.90
13606;DHT22;6874;52.084;5.090;2023-12-28T13:23:38;10.20;99.90
13606;DHT22;6874;52.084;5.090;2023-12-28T13:26:03;10.20;99.90
13606;DHT22;6874;52.084;5.090;2023-12-28T13:28:29;10.20;99.90
13606;DHT22;6874;52.084;5.090;2023-12-28T13:30:54;10.20;99.90
13606;DHT22;6874;52.084;5.090;2023-12-28T13:33:21;10.20;99.90
13606;DHT22;6874;52.084;5.090;2023-12-28T13:35:47;10.30;99.90
13606;DHT22;6874;52.084;5.090;2023-12-28T13:38:13;10.30;99.90
13606;DHT22;6874;52.084;5.090;2023-12-28T13:40:38;10.20;99.90
13606;DHT22;6874;52.084;5.090;2023-12-28T13:43:04;10.20;99.90
13606;DHT22;6874;52.084;5.090;2023-12-28T13:45:29;10.20;99.90
13606;DHT22;6874;52.084;5.090;2023-12-28T13:47:55;10.20;99.90
13606;DHT22;6874;52.084;5.090;2023-12-28T13:50:20;10.20;99.90
13606;DHT22;6874;52.084;5.090;2023-12-28T13:52:46;10.20;99.90
13606;DHT22;6874;52.084;5.090;2023-12-28T13:55:12;10.20;99.90
13606;DHT22;6874;52.084;5.090;2023-12-28T13:57:37;10.20;99.90
13606;DHT22;6874;52.084;5.090;2023-12-28T14:00:03;10.20;99.90
13606;DHT22;6874;52.084;5.090;2023-12-28T14:02:30;10.20;99.90
13606;DHT22;6874;52.084;5.090;2023-12-28T14:04:56;10.20;99.90
13606;DHT22;6874;52.084;5.090;2023-12-28T14:07:22;10.20;99.90
13606;DHT22;6874;52.084;5.090;2023-12-28T14:09:49;10.20;99.90
13606;DHT22;6874;52.084;5.090;2023-12-28T14:12:14;10.20;99.90
13606;DHT22;6874;52.084;5.090;2023-12-28T14:14:40;10.20;99.90
13606;DHT22;6874;52.084;5.090;2023-12-28T14:17:05;10.20;99.90
13606;DHT22;6874;52.084;5.090;2023-12-28T14:19:31;10.20;99.90
13606;DHT22;6874;52.084;5.090;2023-12-28T14:21:58;10.20;99.90
13606;DHT22;6874;52.084;5.090;2023-12-28T14:24:23;10.20;99.90
13606;DHT22;6874;52.084;5.090;2023-12-28T14:26:53;10.10;99.90
13606;DHT22;6874;52.084;5.090;2023-12-28T14:29:19;10.20;99.90
13606;DHT22;6874;52.084;5.090;2023-12-28T14:31:45;10.20;99.90
13606;DHT22;6874;52.084;5.090;2023-12-28T14:34:12;10.20;99.90
13606;DHT22;6874;52.084;5.090;2023-12-28T14:36:38;10.10;99.90
13606;DHT22;6874;52.084;5.090;2023-12-28T14:39:05;10.10;99.90
13606;DHT22;6874;52.084;5.090;2023-12-28T14:41:35;10.10;99.90
13606;DHT22;6874;52.084;5.090;2023-12-28T14:44:01;10.10;99.90
13606;DHT22;6874;52.084;5.090;2023-12-28T14:46:26;10.10;99.90
13606;DHT22;6874;52.084;5.090;2023-12-28T14:48:52;10.10;99.90
13606;DHT22;6874;52.084;5.090;2023-12-28T14:51:18;10.10;99.90
13606;DHT22;6874;52.084;5.090;2023-12-28T14:53:44;10.10;99.90
13606;DHT22;6874;52.084;5.090;2023-12-28T14:56:10;10.10;99.90
13606;DHT22;6874;52.084;5.090;2023-12-28T14:58:40;10.10;99.90
13606;DHT22;6874;52.084;5.090;2023-12-28T15:01:10;10.10;99.90
13606;DHT22;6874;52.084;5.090;2023-12-28T15:03:36;10.10;99.90
13606;DHT22;6874;52.084;5.090;2023-12-28T15:06:04;10.10;99.90
13606;DHT22;6874;52.084;5.090;2023-12-28T15:08:29;10.10;99.90
13606;DHT22;6874;52.084;5.090;2023-12-28T15:10:55;10.10;99.90
13606;DHT22;6874;52.084;5.090;2023-12-28T15:13:21;10.10;99.90
13606;DHT22;6874;52.084;5.090;2023-12-28T15:15:47;10.10;99.90
13606;DHT22;6874;52.084;5.090;2023-12-28T15:18:14;10.00;99.90
13606;DHT22;6874;52.084;5.090;2023-12-28T15:20:45;10.00;99.90
13606;DHT22;6874;52.084;5.090;2023-12-28T15:23:11;10.00;99.90
13606;DHT22;6874;52.084;5.090;2023-12-28T15:25:37;10.10;99.90
13606;DHT22;6874;52.084;5.090;2023-12-28T15:28:03;10.00;99.90
13606;DHT22;6874;52.084;5.090;2023-12-28T15:30:28;10.00;99.90
13606;DHT22;6874;52.084;5.090;2023-12-28T15:32:54;10.00;99.90
13606;DHT22;6874;52.084;5.090;2023-12-28T15:35:19;10.00;99.90
13606;DHT22;6874;52.084;5.090;2023-12-28T15:37:45;10.00;99.90
13606;DHT22;6874;52.084;5.090;2023-12-28T15:40:11;10.00;99.90
13606;DHT22;6874;52.084;5.090;2023-12-28T15:42:36;10.00;99.90
13606;DHT22;6874;52.084;5.090;2023-12-28T15:45:02;10.00;99.90
13606;DHT22;6874;52.084;5.090;2023-12-28T15:47:28;10.00;99.90
13606;DHT22;6874;52.084;5.090;2023-12-28T15:49:54;10.00;99.90
13606;DHT22;6874;52.084;5.090;2023-12-28T15:52:20;10.00;99.90
13606;DHT22;6874;52.084;5.090;2023-12-28T15:54:46;10.00;99.90
13606;DHT22;6874;52.084;5.090;2023-12-28T15:57:11;10.00;99.90
13606;DHT22;6874;52.084;5.090;2023-12-28T15:59:37;10.00;99.90